sensor_id;sensor_type;location;lat;lon;timestamp;temperature;humidity
22769;DHT22;13001;51.968;5.918;2023-03-01T07:48:15;23.20;46.70
22769;DHT22;13001;51.968;5.918;2023-03-01T07:50:42;18.40;47.60
22769;DHT22;13001;51.968;5.918;2023-03-01T08:03:00;18.80;46.50
22769;DHT22;13001;51.968;5.918;2023-03-01T08:05:28;20.30;42.70
22769;DHT22;13001;51.968;5.918;2023-03-01T08:07:56;21.00;42.00
22769;DHT22;13001;51.968;5.918;2023-03-01T09:34:10;21.00;38.90
22769;DHT22;13001;51.968;5.918;2023-03-01T09:36:38;13.50;45.90
22769;DHT22;13001;51.968;5.918;2023-03-01T09:39:05;12.40;48.20
22769;DHT22;13001;51.968;5.918;2023-03-01T09:44:27;11.10;50.90
22769;DHT22;13001;51.968;5.918;2023-03-01T09:46:56;10.60;52.80
22769;DHT22;13001;51.968;5.918;2023-03-01T09:49:26;10.20;53.60
22769;DHT22;13001;51.968;5.918;2023-03-01T09:54:49;9.60;55.20
22769;DHT22;13001;51.968;5.918;2023-03-01T09:57:30;9.30;56.00
22769;DHT22;13001;51.968;5.918;2023-03-01T10:00:11;9.10;56.30
22769;DHT22;13001;51.968;5.918;2023-03-01T10:02:45;8.90;57.10
22769;DHT22;13001;51.968;5.918;2023-03-01T10:10:39;8.40;57.80
22769;DHT22;13001;51.968;5.918;2023-03-01T10:13:16;8.30;57.90
22769;DHT22;13001;51.968;5.918;2023-03-01T10:15:51;8.20;58.10
22769;DHT22;13001;51.968;5.918;2023-03-01T10:18:20;8.10;58.70
22769;DHT22;13001;51.968;5.918;2023-03-01T10:20:53;8.20;58.90
22769;DHT22;13001;51.968;5.918;2023-03-01T10:23:23;8.30;59.10
22769;DHT22;13001;51.968;5.918;2023-03-01T10:28:50;8.40;58.00
22769;DHT22;13001;51.968;5.918;2023-03-01T10:31:18;8.40;57.80
22769;DHT22;13001;51.968;5.918;2023-03-01T10:33:45;8.20;58.00
22769;DHT22;13001;51.968;5.918;2023-03-01T10:36:14;8.20;58.90
22769;DHT22;13001;51.968;5.918;2023-03-01T10:38:56;8.30;59.10
22769;DHT22;13001;51.968;5.918;2023-03-01T10:41:26;8.40;59.30
22769;DHT22;13001;51.968;5.918;2023-03-01T10:43:58;8.60;58.80
22769;DHT22;13001;51.968;5.918;2023-03-01T10:46:35;8.70;58.20
22769;DHT22;13001;51.968;5.918;2023-03-01T10:49:22;8.80;57.90
22769;DHT22;13001;51.968;5.918;2023-03-01T10:51:53;8.80;57.90
22769;DHT22;13001;51.968;5.918;2023-03-01T10:57:02;8.60;57.90
22769;DHT22;13001;51.968;5.918;2023-03-01T10:59:33;8.50;58.50
22769;DHT22;13001;51.968;5.918;2023-03-01T11:02:20;8.70;58.80
22769;DHT22;13001;51.968;5.918;2023-03-01T11:05:13;8.80;58.60
22769;DHT22;13001;51.968;5.918;2023-03-01T11:07:35;9.00;58.30
22769;DHT22;13001;51.968;5.918;2023-03-01T11:10:11;9.20;57.80
22769;DHT22;13001;51.968;5.918;2023-03-01T11:12:32;9.50;57.20
22769;DHT22;13001;51.968;5.918;2023-03-01T11:15:01;9.70;56.60
22769;DHT22;13001;51.968;5.918;2023-03-01T11:17:31;9.80;56.00
22769;DHT22;13001;51.968;5.918;2023-03-01T11:22:51;9.80;55.50
22769;DHT22;13001;51.968;5.918;2023-03-01T11:25:27;9.60;55.00
22769;DHT22;13001;51.968;5.918;2023-03-01T11:27:52;9.40;55.40
22769;DHT22;13001;51.968;5.918;2023-03-01T11:30:28;9.40;55.60
22769;DHT22;13001;51.968;5.918;2023-03-01T11:35:42;9.20;55.80
22769;DHT22;13001;51.968;5.918;2023-03-01T11:38:24;9.00;56.00
22769;DHT22;13001;51.968;5.918;2023-03-01T11:41:15;9.00;56.50
22769;DHT22;13001;51.968;5.918;2023-03-01T11:43:55;9.10;56.60
22769;DHT22;13001;51.968;5.918;2023-03-01T11:46:40;9.20;56.50
22769;DHT22;13001;51.968;5.918;2023-03-01T11:49:40;9.20;56.30
22769;DHT22;13001;51.968;5.918;2023-03-01T11:52:29;9.20;55.90
22769;DHT22;13001;51.968;5.918;2023-03-01T12:06:52;8.90;56.40
22769;DHT22;13001;51.968;5.918;2023-03-01T12:09:31;8.90;56.10
22769;DHT22;13001;51.968;5.918;2023-03-01T12:23:10;8.60;57.70
22769;DHT22;13001;51.968;5.918;2023-03-01T12:28:43;8.60;57.50
22769;DHT22;13001;51.968;5.918;2023-03-01T12:31:44;8.50;56.90
22769;DHT22;13001;51.968;5.918;2023-03-01T12:42:32;8.10;57.40
22769;DHT22;13001;51.968;5.918;2023-03-01T12:50:47;8.10;57.70
22769;DHT22;13001;51.968;5.918;2023-03-01T12:53:36;8.20;57.60
22769;DHT22;13001;51.968;5.918;2023-03-01T12:56:05;8.20;57.50
22769;DHT22;13001;51.968;5.918;2023-03-01T12:58:45;8.20;57.70
22769;DHT22;13001;51.968;5.918;2023-03-01T13:12:02;8.10;56.70
22769;DHT22;13001;51.968;5.918;2023-03-01T13:14:35;8.10;56.80
22769;DHT22;13001;51.968;5.918;2023-03-01T13:17:07;8.10;56.40
22769;DHT22;13001;51.968;5.918;2023-03-01T13:19:34;8.10;56.60
22769;DHT22;13001;51.968;5.918;2023-03-01T13:22:29;8.10;56.80
22769;DHT22;13001;51.968;5.918;2023-03-01T13:24:40;8.10;57.20
22769;DHT22;13001;51.968;5.918;2023-03-01T13:27:11;8.20;57.30
22769;DHT22;13001;51.968;5.918;2023-03-01T13:29:53;8.20;57.20
22769;DHT22;13001;51.968;5.918;2023-03-01T13:32:23;8.10;57.40
22769;DHT22;13001;51.968;5.918;2023-03-01T13:34:53;8.10;57.60
22769;DHT22;13001;51.968;5.918;2023-03-01T13:37:27;8.00;57.70
22769;DHT22;13001;51.968;5.918;2023-03-01T13:39:57;8.10;58.00
22769;DHT22;13001;51.968;5.918;2023-03-01T13:42:39;8.10;58.20
22769;DHT22;13001;51.968;5.918;2023-03-01T13:45:19;8.00;57.80
22769;DHT22;13001;51.968;5.918;2023-03-01T13:48:08;7.90;57.70
22769;DHT22;13001;51.968;5.918;2023-03-01T13:50:33;7.90;57.50
22769;DHT22;13001;51.968;5.918;2023-03-01T13:53:04;7.90;57.50
22769;DHT22;13001;51.968;5.918;2023-03-01T13:55:44;7.80;57.60
22769;DHT22;13001;51.968;5.918;2023-03-01T13:58:31;7.80;57.50
22769;DHT22;13001;51.968;5.918;2023-03-01T14:03:30;7.80;57.30
22769;DHT22;13001;51.968;5.918;2023-03-01T14:06:12;7.70;57.30
22769;DHT22;13001;51.968;5.918;2023-03-01T14:08:37;7.70;57.20
22769;DHT22;13001;51.968;5.918;2023-03-01T14:11:34;7.70;57.40
22769;DHT22;13001;51.968;5.918;2023-03-01T14:14:29;7.80;57.40
22769;DHT22;13001;51.968;5.918;2023-03-01T14:17:06;7.80;57.40
22769;DHT22;13001;51.968;5.918;2023-03-01T14:19:32;7.70;57.50
22769;DHT22;13001;51.968;5.918;2023-03-01T14:24:44;7.70;57.80
22769;DHT22;13001;51.968;5.918;2023-03-01T14:27:11;7.80;57.90
22769;DHT22;13001;51.968;5.918;2023-03-01T14:29:40;7.80;58.10
22769;DHT22;13001;51.968;5.918;2023-03-01T14:32:18;7.80;58.30
22769;DHT22;13001;51.968;5.918;2023-03-01T14:34:48;7.80;58.10
22769;DHT22;13001;51.968;5.918;2023-03-01T14:37:24;7.80;58.20
22769;DHT22;13001;51.968;5.918;2023-03-01T14:39:48;7.80;58.10
22769;DHT22;13001;51.968;5.918;2023-03-01T14:42:16;7.80;57.90
22769;DHT22;13001;51.968;5.918;2023-03-01T14:44:46;7.80;58.10
22769;DHT22;13001;51.968;5.918;2023-03-01T14:47:29;7.90;57.90
22769;DHT22;13001;51.968;5.918;2023-03-01T14:50:07;7.80;57.70
22769;DHT22;13001;51.968;5.918;2023-03-01T14:52:41;7.80;57.80
22769;DHT22;13001;51.968;5.918;2023-03-01T14:55:07;7.80;57.80
22769;DHT22;13001;51.968;5.918;2023-03-01T14:57:35;7.80;57.80
22769;DHT22;13001;51.968;5.918;2023-03-01T15:00:05;7.70;57.80
22769;DHT22;13001;51.968;5.918;2023-03-01T15:02:34;7.70;57.70
22769;DHT22;13001;51.968;5.918;2023-03-01T15:05:07;7.70;57.40
22769;DHT22;13001;51.968;5.918;2023-03-01T15:07:38;7.70;57.20
22769;DHT22;13001;51.968;5.918;2023-03-01T15:10:07;7.70;56.90
22769;DHT22;13001;51.968;5.918;2023-03-01T15:12:37;7.70;56.60
22769;DHT22;13001;51.968;5.918;2023-03-01T15:15:30;7.70;56.50
22769;DHT22;13001;51.968;5.918;2023-03-01T15:17:56;7.60;56.40
22769;DHT22;13001;51.968;5.918;2023-03-01T15:20:27;7.60;56.60
22769;DHT22;13001;51.968;5.918;2023-03-01T15:22:57;7.60;57.10
22769;DHT22;13001;51.968;5.918;2023-03-01T15:25:27;7.60;57.20
22769;DHT22;13001;51.968;5.918;2023-03-01T15:27:57;7.60;57.40
22769;DHT22;13001;51.968;5.918;2023-03-01T15:30:33;7.60;57.50
22769;DHT22;13001;51.968;5.918;2023-03-01T15:35:58;7.50;57.80
22769;DHT22;13001;51.968;5.918;2023-03-01T15:38:49;7.50;57.90
22769;DHT22;13001;51.968;5.918;2023-03-01T15:41:29;7.50;58.00
22769;DHT22;13001;51.968;5.918;2023-03-01T15:43:52;7.40;58.00
22769;DHT22;13001;51.968;5.918;2023-03-01T15:46:27;7.40;58.20
22769;DHT22;13001;51.968;5.918;2023-03-01T15:49:02;7.30;58.40
22769;DHT22;13001;51.968;5.918;2023-03-01T15:51:35;7.30;58.70
22769;DHT22;13001;51.968;5.918;2023-03-01T15:54:02;7.30;59.60
22769;DHT22;13001;51.968;5.918;2023-03-01T15:56:29;7.30;59.10
22769;DHT22;13001;51.968;5.918;2023-03-01T15:59:01;7.30;59.10
22769;DHT22;13001;51.968;5.918;2023-03-01T16:01:29;7.30;59.40
22769;DHT22;13001;51.968;5.918;2023-03-01T16:03:58;7.30;59.60
22769;DHT22;13001;51.968;5.918;2023-03-01T16:06:26;7.20;59.70
22769;DHT22;13001;51.968;5.918;2023-03-01T16:08:53;7.20;59.60
22769;DHT22;13001;51.968;5.918;2023-03-01T16:11:21;7.20;59.60
22769;DHT22;13001;51.968;5.918;2023-03-01T16:13:49;7.20;59.60
22769;DHT22;13001;51.968;5.918;2023-03-01T16:16:17;7.20;59.60
22769;DHT22;13001;51.968;5.918;2023-03-01T16:18:47;7.20;59.70
22769;DHT22;13001;51.968;5.918;2023-03-01T16:21:18;7.10;60.00
22769;DHT22;13001;51.968;5.918;2023-03-01T16:23:47;7.10;59.70
22769;DHT22;13001;51.968;5.918;2023-03-01T16:26:14;7.10;59.60
22769;DHT22;13001;51.968;5.918;2023-03-01T16:28:44;7.10;59.40
22769;DHT22;13001;51.968;5.918;2023-03-01T16:31:13;7.10;59.40
22769;DHT22;13001;51.968;5.918;2023-03-01T16:33:41;7.00;59.30
22769;DHT22;13001;51.968;5.918;2023-03-01T16:36:11;7.00;59.20
22769;DHT22;13001;51.968;5.918;2023-03-01T16:38:39;7.00;59.50
22769;DHT22;13001;51.968;5.918;2023-03-01T16:41:11;6.90;59.50
22769;DHT22;13001;51.968;5.918;2023-03-01T16:43:37;6.90;59.60
22769;DHT22;13001;51.968;5.918;2023-03-01T16:46:13;6.90;59.60
22769;DHT22;13001;51.968;5.918;2023-03-01T16:48:42;6.90;59.60
22769;DHT22;13001;51.968;5.918;2023-03-01T16:51:11;6.80;59.60
22769;DHT22;13001;51.968;5.918;2023-03-01T16:53:39;6.80;59.60
22769;DHT22;13001;51.968;5.918;2023-03-01T16:56:10;6.80;59.90
22769;DHT22;13001;51.968;5.918;2023-03-01T16:58:41;6.70;60.00
22769;DHT22;13001;51.968;5.918;2023-03-01T17:01:12;6.70;60.20
22769;DHT22;13001;51.968;5.918;2023-03-01T17:03:40;6.60;60.70
22769;DHT22;13001;51.968;5.918;2023-03-01T17:06:10;6.60;60.60
22769;DHT22;13001;51.968;5.918;2023-03-01T17:08:39;6.50;60.90
22769;DHT22;13001;51.968;5.918;2023-03-01T17:11:09;6.50;61.40
22769;DHT22;13001;51.968;5.918;2023-03-01T17:13:39;6.40;61.50
22769;DHT22;13001;51.968;5.918;2023-03-01T17:16:10;6.40;61.60
22769;DHT22;13001;51.968;5.918;2023-03-01T17:18:37;6.40;62.60
22769;DHT22;13001;51.968;5.918;2023-03-01T17:21:06;6.30;62.10
22769;DHT22;13001;51.968;5.918;2023-03-01T17:23:35;6.20;62.30
22769;DHT22;13001;51.968;5.918;2023-03-01T17:26:04;6.20;62.60
22769;DHT22;13001;51.968;5.918;2023-03-01T17:28:34;6.10;62.60
22769;DHT22;13001;51.968;5.918;2023-03-01T17:31:04;6.10;62.90
22769;DHT22;13001;51.968;5.918;2023-03-01T17:33:31;6.00;63.10
22769;DHT22;13001;51.968;5.918;2023-03-01T17:35:59;6.00;63.40
22769;DHT22;13001;51.968;5.918;2023-03-01T17:38:27;5.90;63.50
22769;DHT22;13001;51.968;5.918;2023-03-01T17:40:57;5.80;63.70
22769;DHT22;13001;51.968;5.918;2023-03-01T17:43:23;5.80;64.00
22769;DHT22;13001;51.968;5.918;2023-03-01T17:45:51;5.70;64.20
22769;DHT22;13001;51.968;5.918;2023-03-01T17:48:20;5.60;64.40
22769;DHT22;13001;51.968;5.918;2023-03-01T17:50:47;5.50;64.60
22769;DHT22;13001;51.968;5.918;2023-03-01T17:53:15;5.50;64.80
22769;DHT22;13001;51.968;5.918;2023-03-01T17:55:43;5.50;65.00
22769;DHT22;13001;51.968;5.918;2023-03-01T17:58:13;5.50;65.00
22769;DHT22;13001;51.968;5.918;2023-03-01T18:00:41;5.40;65.10
22769;DHT22;13001;51.968;5.918;2023-03-01T18:03:09;5.40;65.20
22769;DHT22;13001;51.968;5.918;2023-03-01T18:05:37;5.40;65.30
22769;DHT22;13001;51.968;5.918;2023-03-01T18:08:05;5.30;65.50
22769;DHT22;13001;51.968;5.918;2023-03-01T18:10:33;5.30;65.80
22769;DHT22;13001;51.968;5.918;2023-03-01T18:13:03;5.20;66.00
22769;DHT22;13001;51.968;5.918;2023-03-01T18:15:32;5.20;66.40
22769;DHT22;13001;51.968;5.918;2023-03-01T18:17:59;5.20;66.70
22769;DHT22;13001;51.968;5.918;2023-03-01T18:20:27;5.10;67.10
22769;DHT22;13001;51.968;5.918;2023-03-01T18:22:56;5.10;67.30
22769;DHT22;13001;51.968;5.918;2023-03-01T18:25:23;5.10;67.70
22769;DHT22;13001;51.968;5.918;2023-03-01T18:27:51;5.10;67.90
22769;DHT22;13001;51.968;5.918;2023-03-01T18:30:18;5.00;68.10
22769;DHT22;13001;51.968;5.918;2023-03-01T18:32:46;5.00;68.50
22769;DHT22;13001;51.968;5.918;2023-03-01T18:35:13;5.00;68.70
22769;DHT22;13001;51.968;5.918;2023-03-01T18:37:41;4.90;68.80
22769;DHT22;13001;51.968;5.918;2023-03-01T18:40:09;4.90;68.90
22769;DHT22;13001;51.968;5.918;2023-03-01T18:42:38;4.90;69.10
22769;DHT22;13001;51.968;5.918;2023-03-01T18:45:06;4.80;69.20
22769;DHT22;13001;51.968;5.918;2023-03-01T18:47:33;4.80;69.40
22769;DHT22;13001;51.968;5.918;2023-03-01T18:50:01;4.80;69.60
22769;DHT22;13001;51.968;5.918;2023-03-01T18:52:28;4.70;69.60
22769;DHT22;13001;51.968;5.918;2023-03-01T18:54:56;4.70;69.80
22769;DHT22;13001;51.968;5.918;2023-03-01T18:57:24;4.70;69.90
22769;DHT22;13001;51.968;5.918;2023-03-01T18:59:51;4.60;69.90
22769;DHT22;13001;51.968;5.918;2023-03-01T19:02:19;4.60;70.10
22769;DHT22;13001;51.968;5.918;2023-03-01T19:04:50;4.60;70.20
22769;DHT22;13001;51.968;5.918;2023-03-01T19:07:18;4.60;70.20
22769;DHT22;13001;51.968;5.918;2023-03-01T19:09:46;4.60;70.40
22769;DHT22;13001;51.968;5.918;2023-03-01T19:12:13;4.50;70.40
22769;DHT22;13001;51.968;5.918;2023-03-01T19:14:41;4.50;70.50
22769;DHT22;13001;51.968;5.918;2023-03-01T19:17:08;4.50;70.70
22769;DHT22;13001;51.968;5.918;2023-03-01T19:19:37;4.50;70.80
22769;DHT22;13001;51.968;5.918;2023-03-01T19:22:05;4.40;70.80
22769;DHT22;13001;51.968;5.918;2023-03-01T19:24:34;4.50;71.00
22769;DHT22;13001;51.968;5.918;2023-03-01T19:27:01;4.50;71.20
22769;DHT22;13001;51.968;5.918;2023-03-01T19:29:29;4.50;71.30
22769;DHT22;13001;51.968;5.918;2023-03-01T19:31:56;4.50;71.30
22769;DHT22;13001;51.968;5.918;2023-03-01T19:34:24;4.50;71.40
22769;DHT22;13001;51.968;5.918;2023-03-01T19:36:51;4.50;71.40
22769;DHT22;13001;51.968;5.918;2023-03-01T19:39:19;4.50;71.50
22769;DHT22;13001;51.968;5.918;2023-03-01T19:41:46;4.50;71.60
22769;DHT22;13001;51.968;5.918;2023-03-01T19:44:14;4.50;71.80
22769;DHT22;13001;51.968;5.918;2023-03-01T19:46:41;4.50;72.00
22769;DHT22;13001;51.968;5.918;2023-03-01T19:49:09;4.50;72.00
22769;DHT22;13001;51.968;5.918;2023-03-01T19:51:37;4.60;71.90
22769;DHT22;13001;51.968;5.918;2023-03-01T19:54:05;4.60;71.80
22769;DHT22;13001;51.968;5.918;2023-03-01T19:56:33;4.60;71.80
22769;DHT22;13001;51.968;5.918;2023-03-01T19:59:00;4.60;71.70
22769;DHT22;13001;51.968;5.918;2023-03-01T20:01:30;4.60;71.70
22769;DHT22;13001;51.968;5.918;2023-03-01T20:04:00;4.50;71.80
22769;DHT22;13001;51.968;5.918;2023-03-01T20:06:28;4.50;71.90
22769;DHT22;13001;51.968;5.918;2023-03-01T20:08:55;4.40;72.00
22769;DHT22;13001;51.968;5.918;2023-03-01T20:11:23;4.40;72.10
22769;DHT22;13001;51.968;5.918;2023-03-01T20:13:50;4.40;72.20
22769;DHT22;13001;51.968;5.918;2023-03-01T20:16:19;4.30;72.20
22769;DHT22;13001;51.968;5.918;2023-03-01T20:18:48;4.30;72.50
22769;DHT22;13001;51.968;5.918;2023-03-01T20:21:16;4.30;72.50
22769;DHT22;13001;51.968;5.918;2023-03-01T20:23:44;4.30;72.50
22769;DHT22;13001;51.968;5.918;2023-03-01T20:26:12;4.30;72.60
22769;DHT22;13001;51.968;5.918;2023-03-01T20:28:41;4.30;72.70
22769;DHT22;13001;51.968;5.918;2023-03-01T20:31:10;4.20;72.70
22769;DHT22;13001;51.968;5.918;2023-03-01T20:33:38;4.20;72.90
22769;DHT22;13001;51.968;5.918;2023-03-01T20:36:07;4.20;73.10
22769;DHT22;13001;51.968;5.918;2023-03-01T20:38:36;4.10;73.10
22769;DHT22;13001;51.968;5.918;2023-03-01T20:41:09;4.10;73.30
22769;DHT22;13001;51.968;5.918;2023-03-01T20:43:37;4.10;73.30
22769;DHT22;13001;51.968;5.918;2023-03-01T20:46:07;4.10;73.40
22769;DHT22;13001;51.968;5.918;2023-03-01T20:48:36;4.10;73.60
22769;DHT22;13001;51.968;5.918;2023-03-01T20:51:06;4.10;73.60
22769;DHT22;13001;51.968;5.918;2023-03-01T20:53:35;4.00;73.70
22769;DHT22;13001;51.968;5.918;2023-03-01T20:56:07;4.00;73.90
22769;DHT22;13001;51.968;5.918;2023-03-01T20:58:35;4.10;74.00
22769;DHT22;13001;51.968;5.918;2023-03-01T21:01:07;4.10;74.20
22769;DHT22;13001;51.968;5.918;2023-03-01T21:03:35;4.00;74.20
22769;DHT22;13001;51.968;5.918;2023-03-01T21:06:04;4.00;74.50
22769;DHT22;13001;51.968;5.918;2023-03-01T21:08:33;4.00;74.50
22769;DHT22;13001;51.968;5.918;2023-03-01T21:11:01;4.10;74.60
22769;DHT22;13001;51.968;5.918;2023-03-01T21:13:30;4.10;74.70
22769;DHT22;13001;51.968;5.918;2023-03-01T21:16:06;4.10;74.60
22769;DHT22;13001;51.968;5.918;2023-03-01T21:18:35;4.10;74.80
22769;DHT22;13001;51.968;5.918;2023-03-01T21:21:10;4.10;74.90
22769;DHT22;13001;51.968;5.918;2023-03-01T21:23:35;4.20;75.00
22769;DHT22;13001;51.968;5.918;2023-03-01T21:26:15;4.20;75.10
22769;DHT22;13001;51.968;5.918;2023-03-01T21:28:45;4.20;75.10
22769;DHT22;13001;51.968;5.918;2023-03-01T21:31:15;4.20;75.20
22769;DHT22;13001;51.968;5.918;2023-03-01T21:33:48;4.20;75.20
22769;DHT22;13001;51.968;5.918;2023-03-01T21:36:17;4.20;75.30
22769;DHT22;13001;51.968;5.918;2023-03-01T21:38:46;4.20;75.30
22769;DHT22;13001;51.968;5.918;2023-03-01T21:41:23;4.20;75.10
22769;DHT22;13001;51.968;5.918;2023-03-01T21:43:50;4.20;75.00
22769;DHT22;13001;51.968;5.918;2023-03-01T21:46:21;4.20;75.00
22769;DHT22;13001;51.968;5.918;2023-03-01T21:48:50;4.20;75.00
22769;DHT22;13001;51.968;5.918;2023-03-01T21:51:20;4.10;75.10
22769;DHT22;13001;51.968;5.918;2023-03-01T21:53:49;4.10;75.40
22769;DHT22;13001;51.968;5.918;2023-03-01T21:56:19;4.10;75.50
22769;DHT22;13001;51.968;5.918;2023-03-01T21:58:47;4.10;75.50
22769;DHT22;13001;51.968;5.918;2023-03-01T22:01:17;4.10;75.60
22769;DHT22;13001;51.968;5.918;2023-03-01T22:03:46;4.00;75.60
22769;DHT22;13001;51.968;5.918;2023-03-01T22:06:24;4.00;75.70
22769;DHT22;13001;51.968;5.918;2023-03-01T22:08:51;4.00;75.70
22769;DHT22;13001;51.968;5.918;2023-03-01T22:11:21;4.00;75.70
22769;DHT22;13001;51.968;5.918;2023-03-01T22:13:50;4.00;75.80
22769;DHT22;13001;51.968;5.918;2023-03-01T22:16:27;4.00;75.80
22769;DHT22;13001;51.968;5.918;2023-03-01T22:18:55;4.00;75.80
22769;DHT22;13001;51.968;5.918;2023-03-01T22:21:25;4.00;75.80
22769;DHT22;13001;51.968;5.918;2023-03-01T22:23:53;3.90;75.70
22769;DHT22;13001;51.968;5.918;2023-03-01T22:26:24;3.90;75.70
22769;DHT22;13001;51.968;5.918;2023-03-01T22:28:53;3.90;75.70
22769;DHT22;13001;51.968;5.918;2023-03-01T22:31:21;3.90;75.80
22769;DHT22;13001;51.968;5.918;2023-03-01T22:33:49;3.80;75.80
22769;DHT22;13001;51.968;5.918;2023-03-01T22:36:17;3.80;75.80
22769;DHT22;13001;51.968;5.918;2023-03-01T22:38:45;3.80;75.90
22769;DHT22;13001;51.968;5.918;2023-03-01T22:41:15;3.80;75.90
22769;DHT22;13001;51.968;5.918;2023-03-01T22:43:42;3.80;76.10
22769;DHT22;13001;51.968;5.918;2023-03-01T22:46:14;3.70;76.20
22769;DHT22;13001;51.968;5.918;2023-03-01T22:48:43;3.70;76.50
22769;DHT22;13001;51.968;5.918;2023-03-01T22:51:22;3.60;76.80
22769;DHT22;13001;51.968;5.918;2023-03-01T22:53:45;3.60;77.00
22769;DHT22;13001;51.968;5.918;2023-03-01T22:56:18;3.60;77.20
22769;DHT22;13001;51.968;5.918;2023-03-01T22:58:46;3.50;77.60
22769;DHT22;13001;51.968;5.918;2023-03-01T23:01:18;3.50;77.80
22769;DHT22;13001;51.968;5.918;2023-03-01T23:03:47;3.50;78.10
22769;DHT22;13001;51.968;5.918;2023-03-01T23:06:16;3.40;78.40
22769;DHT22;13001;51.968;5.918;2023-03-01T23:08:53;3.40;78.60
22769;DHT22;13001;51.968;5.918;2023-03-01T23:11:21;3.40;78.90
22769;DHT22;13001;51.968;5.918;2023-03-01T23:13:50;3.40;79.10
22769;DHT22;13001;51.968;5.918;2023-03-01T23:16:17;3.30;79.20
22769;DHT22;13001;51.968;5.918;2023-03-01T23:18:46;3.30;79.50
22769;DHT22;13001;51.968;5.918;2023-03-01T23:21:16;3.30;79.70
22769;DHT22;13001;51.968;5.918;2023-03-01T23:23:45;3.30;80.00
22769;DHT22;13001;51.968;5.918;2023-03-01T23:26:14;3.30;80.20
22769;DHT22;13001;51.968;5.918;2023-03-01T23:28:41;3.30;80.50
22769;DHT22;13001;51.968;5.918;2023-03-01T23:31:12;3.20;80.80
22769;DHT22;13001;51.968;5.918;2023-03-01T23:33:41;3.20;81.20
22769;DHT22;13001;51.968;5.918;2023-03-01T23:36:19;3.20;81.70
22769;DHT22;13001;51.968;5.918;2023-03-01T23:38:49;3.10;82.20
22769;DHT22;13001;51.968;5.918;2023-03-01T23:41:20;3.10;82.80
22769;DHT22;13001;51.968;5.918;2023-03-01T23:43:52;3.10;83.30
22769;DHT22;13001;51.968;5.918;2023-03-01T23:46:22;3.00;84.00
22769;DHT22;13001;51.968;5.918;2023-03-01T23:48:52;3.00;84.50
22769;DHT22;13001;51.968;5.918;2023-03-01T23:51:20;3.00;85.10
22769;DHT22;13001;51.968;5.918;2023-03-01T23:53:51;2.90;85.80
22769;DHT22;13001;51.968;5.918;2023-03-01T23:58:55;2.90;86.90
